createdAt,value
2018-12-23T00:02:23.333Z,140.43
2018-12-23T00:04:51.915Z,133.73
2018-12-23T00:07:20.535Z,115.50
2018-12-23T00:09:49.142Z,122.77
2018-12-23T00:12:17.701Z,116.37
2018-12-23T00:14:46.308Z,122.70
2018-12-23T00:17:14.921Z,175.17
2018-12-23T00:19:43.450Z,223.17
2018-12-23T00:22:12.074Z,235.57
2018-12-23T00:24:40.642Z,249.07
2018-12-23T00:27:09.182Z,269.30
2018-12-23T00:29:37.717Z,268.10
2018-12-23T00:32:06.371Z,270.30
2018-12-23T00:34:35.937Z,275.43
2018-12-23T00:37:04.589Z,251.13
2018-12-23T00:39:33.200Z,258.23
2018-12-23T00:42:01.818Z,250.93
2018-12-23T00:44:30.424Z,238.10
2018-12-23T00:46:59.119Z,239.33
2018-12-23T00:49:27.770Z,236.83
2018-12-23T00:51:56.318Z,234.03
2018-12-23T00:54:24.984Z,229.07
2018-12-23T00:56:53.568Z,217.43
2018-12-23T00:59:22.147Z,209.50
2018-12-23T01:01:50.764Z,207.90
2018-12-23T01:04:19.304Z,207.63
2018-12-23T01:06:47.847Z,204.27
2018-12-23T01:09:16.503Z,205.07
2018-12-23T01:11:45.050Z,210.40
2018-12-23T01:14:13.651Z,207.47
2018-12-23T01:16:42.227Z,208.80
2018-12-23T01:19:10.844Z,210.63
2018-12-23T01:21:39.425Z,206.87
2018-12-23T01:24:08.040Z,214.33
2018-12-23T01:26:36.681Z,218.80
2018-12-23T01:29:05.335Z,205.23
2018-12-23T01:31:33.929Z,206.60
2018-12-23T01:34:02.513Z,200.67
2018-12-23T01:36:31.107Z,187.67
2018-12-23T01:38:59.672Z,191.33
2018-12-23T01:41:28.327Z,192.60
2018-12-23T01:43:56.955Z,181.27
2018-12-23T01:46:25.555Z,187.40
2018-12-23T01:48:54.128Z,165.77
2018-12-23T01:51:23.049Z,161.80
2018-12-23T01:53:51.663Z,161.00
2018-12-23T01:56:20.276Z,154.47
2018-12-23T01:58:48.851Z,153.00
2018-12-23T02:01:17.480Z,147.13
2018-12-23T02:03:46.063Z,144.73
2018-12-23T02:06:14.734Z,145.73
2018-12-23T02:08:43.346Z,153.53
2018-12-23T02:11:11.968Z,163.10
2018-12-23T02:13:40.525Z,162.17
2018-12-23T02:16:09.087Z,144.57
2018-12-23T02:18:37.692Z,154.17
2018-12-23T02:21:06.310Z,142.83
2018-12-23T02:23:34.951Z,143.17
2018-12-23T02:26:03.562Z,147.83
2018-12-23T02:28:32.097Z,143.47
2018-12-23T02:31:00.771Z,140.30
2018-12-23T02:33:29.349Z,143.43
2018-12-23T02:35:57.902Z,143.63
2018-12-23T02:38:26.696Z,143.40
2018-12-23T02:40:55.310Z,154.83
2018-12-23T02:43:23.864Z,145.27
2018-12-23T02:45:52.428Z,139.07
2018-12-23T02:48:20.992Z,145.60
2018-12-23T02:50:49.568Z,143.40
2018-12-23T02:53:18.130Z,132.40
2018-12-23T02:55:46.754Z,134.80
2018-12-23T02:58:15.370Z,126.23
2018-12-23T03:00:43.954Z,131.67
2018-12-23T03:03:12.523Z,124.67
2018-12-23T03:05:41.167Z,129.10
2018-12-23T03:08:09.758Z,125.80
2018-12-23T03:10:38.307Z,114.20
2018-12-23T03:13:06.912Z,97.23
2018-12-23T03:15:35.448Z,95.13
2018-12-23T03:18:04.070Z,78.53
2018-12-23T03:20:32.641Z,71.67
2018-12-23T03:23:01.167Z,68.13
2018-12-23T03:25:29.756Z,53.53
2018-12-23T03:27:58.380Z,46.50
2018-12-23T03:30:26.979Z,32.80
2018-12-23T03:32:55.561Z,24.53
2018-12-23T03:35:24.176Z,17.50
2018-12-23T03:37:52.753Z,13.37
2018-12-23T03:40:21.315Z,9.20
2018-12-23T03:42:49.870Z,9.73
2018-12-23T03:45:18.485Z,12.07
2018-12-23T03:47:47.070Z,10.23
2018-12-23T03:50:15.692Z,10.43
2018-12-23T03:52:44.320Z,9.50
2018-12-23T03:55:12.912Z,7.17
2018-12-23T03:57:41.516Z,10.27
2018-12-23T04:00:10.117Z,9.67
2018-12-23T04:02:38.670Z,8.37
2018-12-23T04:05:07.205Z,10.20
2018-12-23T04:07:35.784Z,60.33
2018-12-23T04:10:04.523Z,81.43
2018-12-23T04:12:33.110Z,91.00
2018-12-23T04:15:01.711Z,93.47
2018-12-23T04:17:30.261Z,104.10
2018-12-23T04:19:58.888Z,117.53
2018-12-23T04:22:27.572Z,113.53
2018-12-23T04:24:56.261Z,115.67
2018-12-23T04:27:24.871Z,115.97
2018-12-23T04:29:53.441Z,119.13
2018-12-23T04:32:22.009Z,99.83
2018-12-23T04:34:51.206Z,96.03
2018-12-23T04:37:19.771Z,88.87
2018-12-23T04:39:48.363Z,63.27
2018-12-23T04:42:16.983Z,60.90
2018-12-23T04:44:45.577Z,54.87
2018-12-23T04:47:14.160Z,58.97
2018-12-23T04:49:43.250Z,64.10
2018-12-23T04:52:11.822Z,63.00
2018-12-23T04:54:40.395Z,53.77
2018-12-23T04:57:08.959Z,63.43
2018-12-23T04:59:37.588Z,72.63
2018-12-23T05:02:06.175Z,60.03
2018-12-23T05:04:34.813Z,55.10
2018-12-23T05:07:03.455Z,50.03
2018-12-23T05:09:32.044Z,60.37
2018-12-23T05:12:00.607Z,57.03
2018-12-23T05:14:29.210Z,52.17
2018-12-23T05:16:57.753Z,55.60
2018-12-23T05:19:26.344Z,57.83
2018-12-23T05:21:55.622Z,56.67
2018-12-23T05:24:24.618Z,49.63
2018-12-23T05:26:53.250Z,52.30
2018-12-23T05:29:21.858Z,48.10
2018-12-23T05:31:50.419Z,48.40
2018-12-23T05:34:19.019Z,49.30
2018-12-23T05:36:52.325Z,46.90
2018-12-23T05:39:18.329Z,37.87
2018-12-23T05:41:46.992Z,34.60
2018-12-23T05:44:15.609Z,32.57
2018-12-23T05:46:44.225Z,37.07
2018-12-23T05:49:12.905Z,34.73
2018-12-23T05:51:41.461Z,30.17
2018-12-23T05:54:10.071Z,38.83
2018-12-23T05:56:38.662Z,41.00
2018-12-23T05:59:07.256Z,46.30
2018-12-23T06:01:35.915Z,53.83
2018-12-23T06:04:04.458Z,67.93
2018-12-23T06:06:33.012Z,79.37
2018-12-23T06:09:01.709Z,72.87
2018-12-23T06:11:30.855Z,74.77
2018-12-23T06:13:59.512Z,57.27
2018-12-23T06:16:28.171Z,50.57
2018-12-23T06:18:56.919Z,45.13
2018-12-23T06:21:25.568Z,41.80
2018-12-23T06:23:54.201Z,44.83
2018-12-23T06:26:22.855Z,41.43
2018-12-23T06:28:51.402Z,46.40
2018-12-23T06:31:20.082Z,55.13
2018-12-23T06:33:48.670Z,55.23
2018-12-23T06:36:17.329Z,59.00
2018-12-23T06:38:45.870Z,49.60
2018-12-23T06:41:14.694Z,46.40
2018-12-23T06:43:43.440Z,33.50
2018-12-23T06:46:12.095Z,27.03
2018-12-23T06:48:40.682Z,41.13
2018-12-23T06:51:09.272Z,32.63
2018-12-23T06:53:37.932Z,43.70
2018-12-23T06:56:06.512Z,42.40
2018-12-23T06:58:35.273Z,32.57
2018-12-23T07:01:03.871Z,25.50
2018-12-23T07:03:32.446Z,24.03
2018-12-23T07:06:01.023Z,26.77
2018-12-23T07:08:29.591Z,28.37
2018-12-23T07:14:10.884Z,40.83
2018-12-23T07:16:40.668Z,47.43
2018-12-23T07:19:10.523Z,52.47
2018-12-23T07:21:40.722Z,33.93
2018-12-23T07:24:10.485Z,30.93
2018-12-23T07:26:40.279Z,40.27
2018-12-23T07:29:10.138Z,35.83
2018-12-23T07:31:39.884Z,38.87
2018-12-23T07:34:09.733Z,45.10
2018-12-23T07:36:39.508Z,50.60
2018-12-23T07:41:13.291Z,38.87
2018-12-23T07:43:43.107Z,38.90
2018-12-23T07:46:12.873Z,42.03
2018-12-23T07:48:42.645Z,43.27
2018-12-23T07:51:12.420Z,44.10
2018-12-23T07:53:42.222Z,38.83
2018-12-23T07:56:11.983Z,30.87
2018-12-23T07:58:41.792Z,25.97
2018-12-23T08:01:11.585Z,21.47
2018-12-23T08:03:41.353Z,18.40
2018-12-23T08:06:11.253Z,18.93
2018-12-23T08:08:40.990Z,23.93
2018-12-23T08:11:10.805Z,18.70
2018-12-23T08:13:40.657Z,15.33
2018-12-23T08:16:13.448Z,9.70
2018-12-23T08:18:43.220Z,10.50
2018-12-23T08:21:13.004Z,7.10
2018-12-23T08:23:42.766Z,6.20
2018-12-23T08:26:12.604Z,5.00
2018-12-23T08:28:42.394Z,6.53
2018-12-23T08:31:12.171Z,6.17
2018-12-23T08:33:42.058Z,7.57
2018-12-23T08:36:11.834Z,10.03
2018-12-23T08:38:41.793Z,11.47
2018-12-23T08:41:13.287Z,10.77
2018-12-23T08:47:17.757Z,9.13
2018-12-23T08:49:51.431Z,8.60
2018-12-23T08:52:22.127Z,10.77
2018-12-23T08:54:55.533Z,7.27
2018-12-23T08:57:25.529Z,8.43
2018-12-23T08:59:58.918Z,8.10
2018-12-23T09:02:28.749Z,9.13
2018-12-23T09:04:58.649Z,6.17
2018-12-23T09:07:28.810Z,7.97
2018-12-23T09:10:13.023Z,6.97
2018-12-23T09:12:46.288Z,9.33
2018-12-23T09:15:52.915Z,8.63
2018-12-23T09:18:23.428Z,7.97
2018-12-23T09:20:53.280Z,8.20
2018-12-23T09:23:23.135Z,10.30
2018-12-23T09:25:52.854Z,8.80
2018-12-23T09:28:22.605Z,6.50
2018-12-23T09:30:53.444Z,9.43
2018-12-23T09:33:23.172Z,9.00
2018-12-23T09:35:52.936Z,9.17
2018-12-23T09:38:22.680Z,7.37
2018-12-23T09:40:52.556Z,7.87
2018-12-23T09:43:22.356Z,9.93
2018-12-23T09:45:52.131Z,9.47
2018-12-23T09:48:21.894Z,10.27
2018-12-23T09:51:20.176Z,13.07
2018-12-23T10:53:45.223Z,8.23
2018-12-23T10:56:15.070Z,8.53
2018-12-23T10:58:44.945Z,5.33
2018-12-23T11:01:14.791Z,6.47
2018-12-23T11:03:44.597Z,5.87
2018-12-23T11:06:14.481Z,6.63
2018-12-23T11:08:44.318Z,5.77
2018-12-23T11:11:14.222Z,4.40
2018-12-23T11:13:44.110Z,4.53
2018-12-23T11:16:13.939Z,4.47
2018-12-23T11:18:43.877Z,6.40
2018-12-23T11:21:13.769Z,8.70
2018-12-23T11:23:43.632Z,7.03
2018-12-23T11:26:13.502Z,7.40
2018-12-23T11:28:43.359Z,9.20
2018-12-23T11:31:13.198Z,7.00
2018-12-23T11:33:43.021Z,5.80
2018-12-23T11:36:12.857Z,7.80
2018-12-23T11:38:42.672Z,6.80
2018-12-23T11:41:12.487Z,6.93
2018-12-23T11:43:42.281Z,6.50
2018-12-23T11:46:12.047Z,7.50
2018-12-23T11:48:42.020Z,5.93
2018-12-23T11:51:11.842Z,5.80
2018-12-23T11:53:41.633Z,4.70
2018-12-23T11:56:11.419Z,7.03
2018-12-23T11:58:41.475Z,6.23
2018-12-23T12:01:11.279Z,7.13
2018-12-23T12:03:41.064Z,5.60
2018-12-23T12:06:10.859Z,5.60
2018-12-23T12:08:43.884Z,8.53
2018-12-23T12:11:12.244Z,4.50
2018-12-23T12:13:42.090Z,5.57
2018-12-23T12:16:11.851Z,6.03
2018-12-23T12:18:41.617Z,5.87
2018-12-23T12:21:11.409Z,5.63
2018-12-23T12:23:41.183Z,4.93
2018-12-23T12:26:11.014Z,5.20
2018-12-23T12:28:40.947Z,5.57
2018-12-23T12:31:10.729Z,3.83
2018-12-23T12:33:40.614Z,4.03
2018-12-23T12:36:10.382Z,4.30
2018-12-23T12:38:40.204Z,3.83
2018-12-23T12:41:10.103Z,4.00
2018-12-23T12:43:39.861Z,4.67
2018-12-23T12:46:09.700Z,4.47
2018-12-23T12:48:39.517Z,3.23
2018-12-23T12:51:09.304Z,3.67
2018-12-23T12:53:39.043Z,3.50
2018-12-23T12:56:08.760Z,4.50
2018-12-23T12:58:38.620Z,5.03
2018-12-23T13:01:08.372Z,3.67
2018-12-23T13:03:38.121Z,3.40
2018-12-23T13:06:07.954Z,4.60
2018-12-23T13:08:37.735Z,3.60
2018-12-23T13:11:07.496Z,5.47
2018-12-23T13:13:37.318Z,4.53
2018-12-23T13:16:07.246Z,4.97
2018-12-23T13:18:37.043Z,3.43
2018-12-23T13:21:06.865Z,3.73
2018-12-23T13:23:36.608Z,2.93
2018-12-23T13:26:06.466Z,3.33
2018-12-23T13:28:36.320Z,4.23
2018-12-23T13:31:06.890Z,4.03
2018-12-23T13:33:36.678Z,4.70
2018-12-23T13:36:06.782Z,4.97
2018-12-23T13:38:36.542Z,4.33
2018-12-23T13:41:27.785Z,4.93
2018-12-23T13:44:25.917Z,5.90
2018-12-23T13:47:33.582Z,2.33
2018-12-23T13:50:53.583Z,2.10
2018-12-23T13:53:57.704Z,1.50
2018-12-23T13:57:03.111Z,1.90
2018-12-23T14:00:24.847Z,2.70
2018-12-23T14:03:20.757Z,2.60
2018-12-23T14:06:49.447Z,3.30
2018-12-23T14:09:50.108Z,1.10
2018-12-23T14:12:19.903Z,1.43
2018-12-23T14:14:49.672Z,1.20
2018-12-23T14:17:19.862Z,1.80
2018-12-23T14:19:49.653Z,2.07
2018-12-23T14:22:22.682Z,2.30
2018-12-23T14:24:52.553Z,1.70
2018-12-23T14:27:22.412Z,1.20
2018-12-23T14:29:52.228Z,2.67
2018-12-23T14:32:22.092Z,1.60
2018-12-23T14:34:51.808Z,1.40
2018-12-23T14:37:21.864Z,1.50
2018-12-23T14:39:51.740Z,1.57
2018-12-23T14:42:21.573Z,2.10
2018-12-23T14:44:51.408Z,2.57
2018-12-23T14:47:21.206Z,2.80
2018-12-23T14:49:50.985Z,3.77
2018-12-23T14:52:21.049Z,2.27
2018-12-23T14:54:50.900Z,2.80
2018-12-23T14:57:22.585Z,3.30
2018-12-23T14:59:52.467Z,2.90
2018-12-23T15:02:22.292Z,2.30
2018-12-23T15:04:52.107Z,3.73
2018-12-23T15:07:21.910Z,2.97
2018-12-23T15:09:54.039Z,2.77
2018-12-23T15:12:24.964Z,3.33
2018-12-23T15:14:55.548Z,5.03
2018-12-23T15:17:26.396Z,6.40
2018-12-23T15:19:56.194Z,6.97
2018-12-23T15:22:26.415Z,6.13
2018-12-23T15:24:56.266Z,4.20
2018-12-23T15:27:28.196Z,3.23
2018-12-23T15:29:58.235Z,3.47
2018-12-23T15:32:27.987Z,5.40
2018-12-23T15:34:57.805Z,4.07
2018-12-23T15:37:27.612Z,5.37
2018-12-23T15:39:57.461Z,4.53
2018-12-23T15:42:27.264Z,5.27
2018-12-23T15:44:57.048Z,6.13
2018-12-23T15:47:26.850Z,5.13
2018-12-23T15:49:56.651Z,7.53
2018-12-23T15:52:26.458Z,3.40
2018-12-23T15:54:56.282Z,5.93
2018-12-23T15:57:26.348Z,5.97
2018-12-23T15:59:56.175Z,7.70
2018-12-23T16:02:26.885Z,8.70
2018-12-23T16:04:56.887Z,10.57
2018-12-23T16:07:26.739Z,10.03
2018-12-23T16:09:56.998Z,9.33
2018-12-23T16:12:26.831Z,14.40
2018-12-23T16:14:56.636Z,14.63
2018-12-23T16:17:26.448Z,14.43
2018-12-23T16:19:56.273Z,12.67
2018-12-23T16:22:26.182Z,12.20
2018-12-23T16:24:55.997Z,12.37
2018-12-23T16:27:25.757Z,11.27
2018-12-23T16:29:55.542Z,11.67
2018-12-23T16:32:25.379Z,11.10
2018-12-23T16:34:55.168Z,14.40
2018-12-23T16:37:24.914Z,12.77
2018-12-23T16:39:59.570Z,16.07
2018-12-23T16:42:26.308Z,13.33
2018-12-23T16:44:56.147Z,11.80
2018-12-23T16:47:26.038Z,10.63
2018-12-23T16:49:55.841Z,9.03
2018-12-23T16:52:25.649Z,5.93
2018-12-23T16:54:55.472Z,5.40
2018-12-23T16:57:25.300Z,5.70
2018-12-23T16:59:55.085Z,3.23
2018-12-23T17:02:24.924Z,3.37
2018-12-23T17:05:01.650Z,3.60
2018-12-23T17:07:32.253Z,4.37
2018-12-23T17:10:08.209Z,4.30
2018-12-23T17:12:33.622Z,4.07
2018-12-23T17:15:03.398Z,3.40
2018-12-23T17:17:33.185Z,5.07
2018-12-23T17:20:02.961Z,3.40
2018-12-23T17:22:32.795Z,3.67
2018-12-23T17:25:02.676Z,2.20
2018-12-23T17:27:32.470Z,2.47
2018-12-23T17:32:38.240Z,4.13
2018-12-23T17:35:08.100Z,5.50
2018-12-23T17:37:37.930Z,3.43
2018-12-23T17:40:16.281Z,3.90
2018-12-23T17:42:39.679Z,5.03
2018-12-23T17:45:09.473Z,5.40
2018-12-23T17:47:39.295Z,4.63
2018-12-23T17:50:10.136Z,5.33
2018-12-23T17:52:39.900Z,4.97
2018-12-23T17:55:09.666Z,3.70
2018-12-23T17:57:39.435Z,4.50
2018-12-23T18:00:11.833Z,4.57
2018-12-23T18:02:41.324Z,3.80
2018-12-23T18:05:11.219Z,4.73
2018-12-23T18:07:46.591Z,4.53
2018-12-23T18:10:24.804Z,4.00
2018-12-23T18:12:47.992Z,4.03
2018-12-23T18:15:19.368Z,3.97
2018-12-23T18:17:49.147Z,3.90
2018-12-23T18:20:18.943Z,5.37
2018-12-23T18:22:48.821Z,4.60
2018-12-23T18:25:18.680Z,4.47
2018-12-23T18:27:48.503Z,3.37
2018-12-23T18:30:18.329Z,5.67
2018-12-23T18:32:48.251Z,5.23
2018-12-23T18:35:18.095Z,5.27
2018-12-23T18:37:47.916Z,5.77
2018-12-23T18:40:17.700Z,6.37
2018-12-23T18:42:47.467Z,6.27
2018-12-23T18:45:17.250Z,6.90
2018-12-23T18:47:47.044Z,6.50
2018-12-23T18:50:16.879Z,6.03
2018-12-23T18:52:46.709Z,6.03
2018-12-23T18:55:16.501Z,7.20
2018-12-23T18:57:48.103Z,5.30
2018-12-23T19:00:18.063Z,4.97
2018-12-23T19:02:56.992Z,4.33
2018-12-23T19:05:26.781Z,6.40
2018-12-23T19:08:00.589Z,5.37
2018-12-23T19:10:55.101Z,4.20
2018-12-23T19:14:01.173Z,5.87
2018-12-23T19:17:26.295Z,7.47
2018-12-23T19:34:52.864Z,7.97
2018-12-23T19:40:58.624Z,14.13
2018-12-23T19:44:02.392Z,14.90
2018-12-23T19:47:07.589Z,18.70
2018-12-23T19:50:03.812Z,20.43
2018-12-23T19:53:09.142Z,25.87
2018-12-23T19:56:17.049Z,28.23
2018-12-23T19:59:24.905Z,27.23
2018-12-23T20:02:37.611Z,28.60
2018-12-23T20:05:56.288Z,26.43
2018-12-23T20:09:00.647Z,29.10
2018-12-23T20:12:15.867Z,28.07
2018-12-23T20:15:15.381Z,30.17
2018-12-23T20:18:25.958Z,22.87
2018-12-23T20:21:46.740Z,21.33
2018-12-23T20:24:47.142Z,30.60
2018-12-23T20:27:54.888Z,18.33
2018-12-23T20:31:15.418Z,19.53
2018-12-23T20:34:34.985Z,18.60
2018-12-23T20:37:42.590Z,19.23
2018-12-23T20:40:47.652Z,18.53
2018-12-23T20:43:44.910Z,17.97
2018-12-23T20:46:44.988Z,17.53
2018-12-23T20:49:42.119Z,18.47
2018-12-23T20:52:47.351Z,19.67
2018-12-23T20:55:57.826Z,18.97
2018-12-23T20:58:53.166Z,18.37
2018-12-23T21:02:01.905Z,19.80
2018-12-23T21:05:08.192Z,17.50
2018-12-23T21:08:20.362Z,16.07
2018-12-23T21:11:25.625Z,17.23
2018-12-23T21:14:32.021Z,17.33
2018-12-23T21:17:44.716Z,21.73
2018-12-23T21:20:44.848Z,20.90
2018-12-23T21:24:01.482Z,24.63
2018-12-23T21:27:30.096Z,20.50
2018-12-23T21:30:38.255Z,23.03
2018-12-23T21:33:44.838Z,28.87
2018-12-23T21:36:58.068Z,25.00
2018-12-23T21:40:23.578Z,24.80
2018-12-23T21:43:24.265Z,27.27
2018-12-23T21:46:18.646Z,24.67
2018-12-23T21:49:34.283Z,21.97
2018-12-23T21:52:42.341Z,21.73
2018-12-23T21:55:54.752Z,20.10
2018-12-23T21:59:19.435Z,21.03
2018-12-23T22:02:16.647Z,22.40
2018-12-23T22:05:45.417Z,24.43
2018-12-23T22:08:49.260Z,25.10
2018-12-23T22:12:01.410Z,23.30
2018-12-23T22:14:31.215Z,25.60
2018-12-23T22:17:01.037Z,23.77
2018-12-23T22:19:30.819Z,22.57
2018-12-23T22:22:00.677Z,27.20
2018-12-23T22:24:30.469Z,25.17
2018-12-23T22:27:00.246Z,23.50
2018-12-23T22:29:30.047Z,24.43
2018-12-23T22:31:59.954Z,22.33
2018-12-23T22:34:29.918Z,19.57
2018-12-23T22:36:59.829Z,21.90
2018-12-23T22:39:29.580Z,21.63
2018-12-23T22:41:59.371Z,20.30
2018-12-23T22:44:29.152Z,19.03
2018-12-23T22:46:58.975Z,20.70
2018-12-23T22:49:28.785Z,23.50
2018-12-23T22:51:58.602Z,22.73
2018-12-23T22:54:28.504Z,21.40
2018-12-23T22:56:58.350Z,22.27
2018-12-23T22:59:28.143Z,19.30
2018-12-23T23:01:57.920Z,20.60
2018-12-23T23:04:27.711Z,21.23
2018-12-23T23:06:57.529Z,19.27
2018-12-23T23:09:27.429Z,18.73
2018-12-23T23:11:57.200Z,21.53
2018-12-23T23:14:27.084Z,15.47
2018-12-23T23:16:57.247Z,16.40
2018-12-23T23:19:27.022Z,16.90
2018-12-23T23:21:57.180Z,14.90
2018-12-23T23:24:27.018Z,16.00
2018-12-23T23:26:56.788Z,15.90
2018-12-23T23:29:26.623Z,14.23
2018-12-23T23:31:56.364Z,12.83
2018-12-23T23:34:26.190Z,13.33
2018-12-23T23:36:58.502Z,13.30
2018-12-23T23:39:28.289Z,15.37
2018-12-23T23:41:58.407Z,15.80
2018-12-23T23:44:28.692Z,13.37
2018-12-23T23:46:58.494Z,11.20
2018-12-23T23:49:28.279Z,11.30
2018-12-23T23:51:58.110Z,12.03
2018-12-23T23:54:27.926Z,16.23
2018-12-23T23:56:57.708Z,18.97
2018-12-23T23:59:27.440Z,13.43
